EWG9244 EDDL-EKCH
Flight info
| Callsign | EWG9244 |
|---|---|
| Flight time | 0h 55m |
| Altitude | 39000 |
| Route | MEVEL4T/23L MEVEL Y850 BASUM DOSUR P729 TUDLO |
| Aircraft | A319/M-SDE3FGHIRWY/LB1 |
Departure
| Time | 2026-05-04 17:35 |
|---|---|
| Airport | Düsseldorf Airport (EDDL) |
Arrival
| Time | 2026-05-04 18:31 |
|---|---|
| Airport | Copenhagen Kastrup Airport (EKCH) |
| Time | Latitude | Longitude | Altitude | Speed | Heading |
|---|---|---|---|---|---|
| 2026-05-04 17:23 | 51.28826 | 6.77489 | 124 ft | 20 kts | 54° |
| 2026-05-04 17:23 | 51.28869 | 6.77574 | 123 ft | 20 kts | 51° |
| 2026-05-04 17:23 | 51.29018 | 6.77886 | 124 ft | 13 kts | 53° |
| 2026-05-04 17:24 | 51.29072 | 6.78001 | 127 ft | 12 kts | 52° |
| 2026-05-04 17:24 | 51.29173 | 6.78214 | 128 ft | 0 kts | 52° |
| 2026-05-04 17:25 | 51.29174 | 6.78215 | 128 ft | 0 kts | 52° |
| 2026-05-04 17:25 | 51.29196 | 6.78252 | 129 ft | 4 kts | 42° |
| 2026-05-04 17:26 | 51.29275 | 6.78344 | 132 ft | 8 kts | 36° |
| 2026-05-04 17:26 | 51.29342 | 6.78423 | 135 ft | 0 kts | 37° |
| 2026-05-04 17:27 | 51.29352 | 6.78435 | 136 ft | 0 kts | 37° |
| 2026-05-04 17:29 | 51.29394 | 6.78472 | 137 ft | 3 kts | 358° |
| 2026-05-04 17:29 | 51.29395 | 6.78472 | 137 ft | 0 kts | 355° |
| 2026-05-04 17:33 | 51.29423 | 6.78468 | 138 ft | 6 kts | 356° |
| 2026-05-04 17:33 | 51.29477 | 6.78457 | 139 ft | 8 kts | 330° |
| 2026-05-04 17:34 | 51.29458 | 6.78339 | 136 ft | 0 kts | 232° |
| 2026-05-04 17:34 | 51.29455 | 6.78334 | 136 ft | 2 kts | 232° |
| 2026-05-04 17:35 | 51.28426 | 6.76170 | 377 ft | 163 kts | 231° |
| 2026-05-04 17:35 | 51.27015 | 6.73164 | 1872 ft | 183 kts | 241° |
| 2026-05-04 17:35 | 51.26786 | 6.71232 | 2647 ft | 195 kts | 282° |
| 2026-05-04 17:36 | 51.27512 | 6.69471 | 3490 ft | 205 kts | 324° |
| 2026-05-04 17:36 | 51.28840 | 6.68573 | 4267 ft | 214 kts | 348° |
| 2026-05-04 17:36 | 51.30388 | 6.68450 | 4771 ft | 238 kts | 3° |
| 2026-05-04 17:36 | 51.32141 | 6.68681 | 4953 ft | 270 kts | 6° |
| 2026-05-04 17:37 | 51.34037 | 6.68976 | 4952 ft | 279 kts | 5° |
| 2026-05-04 17:37 | 51.35976 | 6.69245 | 4969 ft | 283 kts | 4° |
| 2026-05-04 17:37 | 51.37968 | 6.69482 | 5457 ft | 293 kts | 4° |
| 2026-05-04 17:37 | 51.39959 | 6.69583 | 6649 ft | 290 kts | 0° |
| 2026-05-04 17:38 | 51.41951 | 6.69601 | 7793 ft | 290 kts | 359° |
| 2026-05-04 17:38 | 51.43947 | 6.69604 | 8839 ft | 293 kts | 359° |
| 2026-05-04 17:38 | 51.45980 | 6.69604 | 9837 ft | 297 kts | 359° |
| 2026-05-04 17:38 | 51.48050 | 6.69604 | 10712 ft | 306 kts | 359° |
| 2026-05-04 17:39 | 51.52504 | 6.69605 | 12121 ft | 331 kts | 359° |
| 2026-05-04 17:39 | 51.54800 | 6.69609 | 13040 ft | 335 kts | 359° |
| 2026-05-04 17:39 | 51.57110 | 6.69614 | 13925 ft | 339 kts | 359° |
| 2026-05-04 17:40 | 51.59473 | 6.69660 | 14762 ft | 344 kts | 4° |
| 2026-05-04 17:40 | 51.61774 | 6.70636 | 15516 ft | 351 kts | 27° |
| 2026-05-04 17:40 | 51.63696 | 6.73024 | 16330 ft | 354 kts | 50° |
| 2026-05-04 17:40 | 51.65212 | 6.76212 | 17121 ft | 358 kts | 55° |
| 2026-05-04 17:41 | 51.66658 | 6.79506 | 17648 ft | 362 kts | 56° |
| 2026-05-04 17:41 | 51.68119 | 6.82804 | 17909 ft | 364 kts | 55° |
| 2026-05-04 17:41 | 51.69605 | 6.86095 | 17930 ft | 364 kts | 54° |
| 2026-05-04 17:41 | 51.71094 | 6.89358 | 17933 ft | 363 kts | 54° |
| 2026-05-04 17:42 | 51.72595 | 6.92628 | 17939 ft | 364 kts | 54° |
| 2026-05-04 17:42 | 51.74078 | 6.95866 | 17942 ft | 365 kts | 54° |
| 2026-05-04 17:42 | 51.75599 | 6.99193 | 18142 ft | 373 kts | 54° |
| 2026-05-04 17:42 | 51.77134 | 7.02552 | 18909 ft | 375 kts | 54° |
| 2026-05-04 17:43 | 51.78856 | 7.05732 | 19695 ft | 378 kts | 39° |
| 2026-05-04 17:43 | 51.81153 | 7.07783 | 20436 ft | 380 kts | 22° |
| 2026-05-04 17:43 | 51.83650 | 7.09253 | 21107 ft | 385 kts | 19° |
| 2026-05-04 17:43 | 51.86176 | 7.10656 | 21728 ft | 391 kts | 19° |
| 2026-05-04 17:44 | 51.88765 | 7.12150 | 22357 ft | 396 kts | 20° |
| 2026-05-04 17:44 | 51.91359 | 7.13714 | 22965 ft | 401 kts | 20° |
| 2026-05-04 17:44 | 51.93949 | 7.15326 | 23549 ft | 406 kts | 21° |
| 2026-05-04 17:44 | 51.96559 | 7.16983 | 24155 ft | 410 kts | 21° |
| 2026-05-04 17:45 | 51.99170 | 7.18661 | 24702 ft | 415 kts | 21° |
| 2026-05-04 17:45 | 52.01826 | 7.20380 | 24929 ft | 417 kts | 21° |
| 2026-05-04 17:45 | 52.04527 | 7.22134 | 24937 ft | 416 kts | 21° |
| 2026-05-04 17:45 | 52.07202 | 7.23879 | 24940 ft | 416 kts | 21° |
| 2026-05-04 17:46 | 52.09871 | 7.25623 | 24946 ft | 417 kts | 21° |
| 2026-05-04 17:46 | 52.12567 | 7.27383 | 25119 ft | 424 kts | 21° |
| 2026-05-04 17:46 | 52.15316 | 7.29175 | 25745 ft | 426 kts | 20° |
| 2026-05-04 17:46 | 52.18095 | 7.30992 | 26376 ft | 428 kts | 20° |
| 2026-05-04 17:47 | 52.20846 | 7.32795 | 26904 ft | 432 kts | 20° |
| 2026-05-04 17:47 | 52.23636 | 7.34631 | 27388 ft | 437 kts | 20° |
| 2026-05-04 17:47 | 52.26460 | 7.36492 | 27856 ft | 441 kts | 20° |
| 2026-05-04 17:47 | 52.29320 | 7.38377 | 28323 ft | 445 kts | 20° |
| 2026-05-04 17:48 | 52.32223 | 7.40291 | 28770 ft | 450 kts | 20° |
| 2026-05-04 17:48 | 52.35103 | 7.42198 | 29231 ft | 453 kts | 20° |
| 2026-05-04 17:48 | 52.38039 | 7.44145 | 29687 ft | 457 kts | 20° |
| 2026-05-04 17:48 | 52.41026 | 7.46128 | 30133 ft | 460 kts | 19° |
| 2026-05-04 17:49 | 52.44002 | 7.48104 | 30540 ft | 464 kts | 19° |
| 2026-05-04 17:49 | 52.47007 | 7.50104 | 30933 ft | 468 kts | 19° |
| 2026-05-04 17:49 | 52.50000 | 7.52100 | 31309 ft | 471 kts | 19° |
| 2026-05-04 17:49 | 52.53039 | 7.54130 | 31694 ft | 475 kts | 19° |
| 2026-05-04 17:50 | 52.56099 | 7.56178 | 32056 ft | 478 kts | 19° |
| 2026-05-04 17:50 | 52.59194 | 7.58253 | 32514 ft | 479 kts | 19° |
| 2026-05-04 17:50 | 52.62246 | 7.60304 | 33056 ft | 477 kts | 18° |
| 2026-05-04 17:50 | 52.65305 | 7.62362 | 33588 ft | 476 kts | 18° |
| 2026-05-04 17:51 | 52.68338 | 7.64406 | 34083 ft | 475 kts | 18° |
| 2026-05-04 17:51 | 52.71406 | 7.66480 | 34567 ft | 474 kts | 19° |
| 2026-05-04 17:51 | 52.74440 | 7.68542 | 34996 ft | 473 kts | 19° |
| 2026-05-04 17:51 | 52.77483 | 7.70611 | 35351 ft | 471 kts | 19° |
| 2026-05-04 17:52 | 52.80530 | 7.72682 | 35720 ft | 469 kts | 19° |
| 2026-05-04 17:52 | 52.83520 | 7.74713 | 36059 ft | 467 kts | 19° |
| 2026-05-04 17:52 | 52.86515 | 7.76747 | 36359 ft | 465 kts | 19° |
| 2026-05-04 17:52 | 52.89503 | 7.78782 | 36663 ft | 463 kts | 19° |
| 2026-05-04 17:53 | 52.92454 | 7.80792 | 36980 ft | 461 kts | 19° |
| 2026-05-04 17:53 | 52.95406 | 7.82806 | 37328 ft | 460 kts | 19° |
| 2026-05-04 17:53 | 52.98388 | 7.84844 | 37630 ft | 460 kts | 19° |
| 2026-05-04 17:53 | 53.01347 | 7.86866 | 37876 ft | 460 kts | 19° |
| 2026-05-04 17:54 | 53.04303 | 7.88890 | 38107 ft | 461 kts | 19° |
| 2026-05-04 17:54 | 53.07270 | 7.90925 | 38321 ft | 461 kts | 19° |
| 2026-05-04 17:54 | 53.20180 | 7.99794 | 39093 ft | 463 kts | 19° |
| 2026-05-04 17:54 | 53.23319 | 8.01959 | 39015 ft | 463 kts | 19° |
| 2026-05-04 17:55 | 53.29290 | 8.06099 | 38982 ft | 463 kts | 20° |
| 2026-05-04 17:55 | 53.35482 | 8.10407 | 38980 ft | 463 kts | 19° |
| 2026-05-04 17:56 | 53.71096 | 8.35447 | 38975 ft | 461 kts | 19° |
| 2026-05-04 17:56 | 53.77008 | 8.39647 | 38981 ft | 461 kts | 19° |
| 2026-05-04 17:57 | 53.82901 | 8.43846 | 38985 ft | 461 kts | 19° |
| 2026-05-04 17:57 | 53.88783 | 8.48050 | 38985 ft | 460 kts | 19° |
| 2026-05-04 17:58 | 53.94683 | 8.52279 | 38984 ft | 460 kts | 19° |
| 2026-05-04 17:58 | 54.00197 | 8.56245 | 38985 ft | 461 kts | 20° |
| 2026-05-04 17:59 | 54.06078 | 8.60490 | 38983 ft | 460 kts | 20° |
| 2026-05-04 18:00 | 54.14828 | 8.66823 | 38985 ft | 460 kts | 20° |
| 2026-05-04 18:00 | 54.20678 | 8.71091 | 38982 ft | 459 kts | 20° |
| 2026-05-04 18:01 | 54.26564 | 8.75393 | 38978 ft | 460 kts | 20° |
| 2026-05-04 18:01 | 54.32430 | 8.79688 | 38979 ft | 460 kts | 20° |
| 2026-05-04 18:02 | 54.41257 | 8.86172 | 38977 ft | 460 kts | 20° |
| 2026-05-04 18:02 | 54.46818 | 8.91780 | 38974 ft | 466 kts | 38° |
| 2026-05-04 18:03 | 54.51260 | 8.99943 | 38973 ft | 469 kts | 49° |
| 2026-05-04 18:03 | 54.55375 | 9.08697 | 38977 ft | 470 kts | 49° |
| 2026-05-04 18:04 | 54.59496 | 9.17431 | 38974 ft | 470 kts | 49° |
| 2026-05-04 18:05 | 54.65028 | 9.29089 | 38967 ft | 470 kts | 48° |
| 2026-05-04 18:05 | 54.67785 | 9.34908 | 38800 ft | 465 kts | 49° |
| 2026-05-04 18:05 | 54.69809 | 9.39187 | 38228 ft | 465 kts | 48° |
| 2026-05-04 18:05 | 54.71872 | 9.43549 | 37443 ft | 469 kts | 48° |
| 2026-05-04 18:06 | 54.75995 | 9.52295 | 36115 ft | 472 kts | 48° |
| 2026-05-04 18:06 | 54.78065 | 9.56695 | 35596 ft | 472 kts | 48° |
| 2026-05-04 18:06 | 54.80133 | 9.61075 | 35008 ft | 472 kts | 46° |
| 2026-05-04 18:07 | 54.82485 | 9.64913 | 34368 ft | 468 kts | 33° |
| 2026-05-04 18:07 | 54.85260 | 9.67798 | 33672 ft | 462 kts | 21° |
| 2026-05-04 18:07 | 54.88210 | 9.69804 | 33149 ft | 454 kts | 15° |
| 2026-05-04 18:07 | 54.91219 | 9.71587 | 32498 ft | 453 kts | 14° |
| 2026-05-04 18:08 | 54.94193 | 9.73317 | 31786 ft | 454 kts | 16° |
| 2026-05-04 18:08 | 54.97051 | 9.75588 | 31204 ft | 455 kts | 26° |
| 2026-05-04 18:08 | 54.99665 | 9.78651 | 30685 ft | 455 kts | 36° |
| 2026-05-04 18:08 | 55.01967 | 9.82365 | 30125 ft | 454 kts | 45° |
| 2026-05-04 18:09 | 55.05515 | 9.91372 | 29098 ft | 449 kts | 60° |
| 2026-05-04 18:09 | 55.08400 | 10.00983 | 28967 ft | 450 kts | 61° |
| 2026-05-04 18:10 | 55.11320 | 10.10632 | 28962 ft | 451 kts | 60° |
| 2026-05-04 18:10 | 55.14286 | 10.20269 | 28624 ft | 449 kts | 60° |
| 2026-05-04 18:11 | 55.15761 | 10.25076 | 28220 ft | 446 kts | 60° |
| 2026-05-04 18:11 | 55.17221 | 10.29857 | 27798 ft | 443 kts | 60° |
| 2026-05-04 18:11 | 55.18663 | 10.34594 | 27354 ft | 439 kts | 60° |
| 2026-05-04 18:11 | 55.20077 | 10.39251 | 26914 ft | 436 kts | 60° |
| 2026-05-04 18:12 | 55.23174 | 10.49493 | 25951 ft | 432 kts | 60° |
| 2026-05-04 18:12 | 55.24678 | 10.54488 | 25633 ft | 426 kts | 60° |
| 2026-05-04 18:12 | 55.26051 | 10.59047 | 25283 ft | 423 kts | 60° |
| 2026-05-04 18:12 | 55.27321 | 10.63672 | 24801 ft | 421 kts | 65° |
| 2026-05-04 18:13 | 55.28332 | 10.68444 | 24267 ft | 419 kts | 71° |
| 2026-05-04 18:13 | 55.29167 | 10.73298 | 23766 ft | 415 kts | 73° |
| 2026-05-04 18:13 | 55.30740 | 10.82912 | 22852 ft | 407 kts | 73° |
| 2026-05-04 18:14 | 55.31523 | 10.87597 | 22406 ft | 403 kts | 72° |
| 2026-05-04 18:14 | 55.33087 | 10.96850 | 21533 ft | 399 kts | 72° |
| 2026-05-04 18:14 | 55.34208 | 11.03495 | 21071 ft | 398 kts | 72° |
| 2026-05-04 18:15 | 55.35760 | 11.12821 | 20333 ft | 395 kts | 72° |
| 2026-05-04 18:15 | 55.38004 | 11.26428 | 18797 ft | 394 kts | 72° |
| 2026-05-04 18:15 | 55.38760 | 11.31047 | 18499 ft | 387 kts | 72° |
| 2026-05-04 18:16 | 55.39498 | 11.35571 | 18105 ft | 385 kts | 72° |
| 2026-05-04 18:16 | 55.40326 | 11.39981 | 17609 ft | 382 kts | 63° |
| 2026-05-04 18:16 | 55.41654 | 11.44014 | 17098 ft | 380 kts | 53° |
| 2026-05-04 18:17 | 55.46308 | 11.56133 | 15800 ft | 368 kts | 53° |
| 2026-05-04 18:17 | 55.47706 | 11.59917 | 15384 ft | 367 kts | 54° |
| 2026-05-04 18:17 | 55.52772 | 11.74063 | 13792 ft | 361 kts | 56° |
| 2026-05-04 18:18 | 55.54086 | 11.77790 | 13549 ft | 357 kts | 56° |
| 2026-05-04 18:18 | 55.55377 | 11.81459 | 13192 ft | 355 kts | 56° |
| 2026-05-04 18:18 | 55.56695 | 11.85205 | 12729 ft | 354 kts | 56° |
| 2026-05-04 18:18 | 55.57988 | 11.88883 | 12229 ft | 354 kts | 56° |
| 2026-05-04 18:19 | 55.60605 | 11.96335 | 11148 ft | 352 kts | 56° |
| 2026-05-04 18:19 | 55.61886 | 11.99993 | 10749 ft | 345 kts | 56° |
| 2026-05-04 18:19 | 55.63129 | 12.03553 | 10231 ft | 335 kts | 56° |
| 2026-05-04 18:20 | 55.64329 | 12.06995 | 9959 ft | 317 kts | 56° |
| 2026-05-04 18:20 | 55.65486 | 12.10318 | 9905 ft | 310 kts | 56° |
| 2026-05-04 18:20 | 55.66611 | 12.13545 | 9611 ft | 308 kts | 56° |
| 2026-05-04 18:20 | 55.67739 | 12.16788 | 9288 ft | 306 kts | 56° |
| 2026-05-04 18:21 | 55.68858 | 12.20009 | 8932 ft | 303 kts | 56° |
| 2026-05-04 18:21 | 55.69961 | 12.23188 | 8618 ft | 301 kts | 56° |
| 2026-05-04 18:21 | 55.72241 | 12.30068 | 7981 ft | 300 kts | 68° |
| 2026-05-04 18:21 | 55.72476 | 12.33706 | 7783 ft | 299 kts | 95° |
| 2026-05-04 18:22 | 55.71738 | 12.42519 | 7415 ft | 298 kts | 99° |
| 2026-05-04 18:22 | 55.71418 | 12.46250 | 7249 ft | 295 kts | 97° |
| 2026-05-04 18:22 | 55.71216 | 12.49860 | 6823 ft | 293 kts | 86° |
| 2026-05-04 18:22 | 55.71638 | 12.53366 | 6443 ft | 288 kts | 65° |
| 2026-05-04 18:23 | 55.72507 | 12.56557 | 6087 ft | 284 kts | 59° |
| 2026-05-04 18:23 | 55.73439 | 12.59641 | 5712 ft | 283 kts | 58° |
| 2026-05-04 18:23 | 55.74385 | 12.62719 | 5355 ft | 280 kts | 56° |
| 2026-05-04 18:23 | 55.75342 | 12.65778 | 4979 ft | 280 kts | 60° |
| 2026-05-04 18:24 | 55.76233 | 12.68815 | 4593 ft | 279 kts | 60° |
| 2026-05-04 18:24 | 55.77111 | 12.71863 | 4219 ft | 277 kts | 60° |
| 2026-05-04 18:24 | 55.77981 | 12.74901 | 4004 ft | 270 kts | 60° |
| 2026-05-04 18:24 | 55.78807 | 12.77815 | 3987 ft | 254 kts | 60° |
| 2026-05-04 18:25 | 55.79575 | 12.80558 | 3970 ft | 236 kts | 60° |
| 2026-05-04 18:25 | 55.80271 | 12.83091 | 3984 ft | 223 kts | 60° |
| 2026-05-04 18:25 | 55.80935 | 12.85583 | 3985 ft | 224 kts | 65° |
| 2026-05-04 18:25 | 55.81122 | 12.88343 | 3972 ft | 227 kts | 101° |
| 2026-05-04 18:26 | 55.80424 | 12.90834 | 3967 ft | 226 kts | 137° |
| 2026-05-04 18:26 | 55.79086 | 12.92210 | 3970 ft | 219 kts | 173° |
| 2026-05-04 18:26 | 55.77629 | 12.92031 | 3969 ft | 208 kts | 208° |
| 2026-05-04 18:26 | 55.76539 | 12.90517 | 3821 ft | 196 kts | 238° |
| 2026-05-04 18:27 | 55.75785 | 12.88490 | 3508 ft | 197 kts | 241° |
| 2026-05-04 18:27 | 55.74949 | 12.86496 | 3268 ft | 197 kts | 233° |
| 2026-05-04 18:27 | 55.74015 | 12.84739 | 3086 ft | 193 kts | 230° |
| 2026-05-04 18:27 | 55.73064 | 12.83105 | 2993 ft | 185 kts | 228° |
| 2026-05-04 18:28 | 55.72113 | 12.81573 | 2934 ft | 185 kts | 227° |
| 2026-05-04 18:28 | 55.71104 | 12.80004 | 2545 ft | 193 kts | 226° |
| 2026-05-04 18:28 | 55.70068 | 12.78385 | 2023 ft | 206 kts | 227° |
| 2026-05-04 18:28 | 55.68972 | 12.76671 | 1427 ft | 214 kts | 224° |
| 2026-05-04 18:29 | 55.67862 | 12.74992 | 1226 ft | 197 kts | 224° |
| 2026-05-04 18:29 | 55.66872 | 12.73479 | 1129 ft | 180 kts | 225° |
| 2026-05-04 18:29 | 55.65989 | 12.72112 | 978 ft | 162 kts | 226° |
| 2026-05-04 18:29 | 55.65181 | 12.70857 | 728 ft | 146 kts | 225° |
| 2026-05-04 18:30 | 55.63805 | 12.68726 | 364 ft | 123 kts | 226° |
| 2026-05-04 18:30 | 55.63163 | 12.67733 | 192 ft | 122 kts | 226° |
| 2026-05-04 18:30 | 55.62530 | 12.66752 | 37 ft | 121 kts | 226° |
| 2026-05-04 18:31 | 55.61986 | 12.65897 | 14 ft | 73 kts | 221° |
| 2026-05-04 18:31 | 55.61797 | 12.65598 | 15 ft | 21 kts | 220° |
| 2026-05-04 18:31 | 55.61695 | 12.65443 | 15 ft | 19 kts | 221° |
| 2026-05-04 18:31 | 55.61613 | 12.65274 | 15 ft | 17 kts | 250° |
| 2026-05-04 18:32 | 55.61609 | 12.65077 | 15 ft | 16 kts | 284° |
| 2026-05-04 18:32 | 55.61669 | 12.64902 | 15 ft | 17 kts | 312° |
| 2026-05-04 18:32 | 55.61733 | 12.64813 | 15 ft | 10 kts | 334° |
| 2026-05-04 18:32 | 55.61791 | 12.64784 | 15 ft | 5 kts | 354° |
| 2026-05-04 18:33 | 55.61827 | 12.64784 | 15 ft | 5 kts | 7° |
| 2026-05-04 18:33 | 55.61835 | 12.64786 | 15 ft | 0 kts | 10° |
| 2026-05-04 18:33 | 55.61837 | 12.64787 | 15 ft | 1 kts | 10° |
| 2026-05-04 18:33 | 55.61869 | 12.64802 | 15 ft | 7 kts | 17° |
| 2026-05-04 18:34 | 55.61907 | 12.64834 | 15 ft | 0 kts | 32° |
| 2026-05-04 18:35 | 55.61913 | 12.64841 | 15 ft | 9 kts | 32° |
| 2026-05-04 18:35 | 55.62105 | 12.65061 | 15 ft | 24 kts | 34° |
| 2026-05-04 18:35 | 55.62153 | 12.65117 | 15 ft | 5 kts | 33° |
| 2026-05-04 18:36 | 55.62187 | 12.65155 | 15 ft | 4 kts | 33° |
| 2026-05-04 18:36 | 55.62203 | 12.65173 | 16 ft | 3 kts | 32° |
| 2026-05-04 18:36 | 55.62214 | 12.65185 | 16 ft | 0 kts | 25° |
| 2026-05-04 18:36 | 55.62219 | 12.65188 | 16 ft | 1 kts | 20° |